sensor_id;sensor_type;location;lat;lon;timestamp;pressure;altitude;pressure_sealevel;temperature;humidity
56876;BME280;42622;49.972;8.452;2022-07-23T00:00:33;100539.38;;;20.88;69.50
56876;BME280;42622;49.972;8.452;2022-07-23T00:02:59;100548.28;;;20.88;69.38
56876;BME280;42622;49.972;8.452;2022-07-23T00:05:25;100541.25;;;20.87;69.97
56876;BME280;42622;49.972;8.452;2022-07-23T00:07:51;100544.44;;;20.83;70.10
56876;BME280;42622;49.972;8.452;2022-07-23T00:10:17;100564.41;;;20.80;70.12
56876;BME280;42622;49.972;8.452;2022-07-23T00:12:43;100564.91;;;20.75;70.20
56876;BME280;42622;49.972;8.452;2022-07-23T00:15:10;100557.00;;;20.74;71.18
56876;BME280;42622;49.972;8.452;2022-07-23T00:17:36;100572.28;;;20.73;71.84
56876;BME280;42622;49.972;8.452;2022-07-23T00:20:03;100578.88;;;20.71;72.78
56876;BME280;42622;49.972;8.452;2022-07-23T00:22:29;100586.22;;;20.69;73.44
56876;BME280;42622;49.972;8.452;2022-07-23T00:24:56;100591.59;;;20.69;74.06
56876;BME280;42622;49.972;8.452;2022-07-23T00:27:22;100593.78;;;20.65;73.85
56876;BME280;42622;49.972;8.452;2022-07-23T00:29:48;100582.22;;;20.65;73.90
56876;BME280;42622;49.972;8.452;2022-07-23T00:32:14;100568.59;;;20.58;73.87
56876;BME280;42622;49.972;8.452;2022-07-23T00:34:40;100560.72;;;20.57;73.56
56876;BME280;42622;49.972;8.452;2022-07-23T00:37:06;100559.00;;;20.56;73.64
56876;BME280;42622;49.972;8.452;2022-07-23T00:39:32;100545.59;;;20.56;73.53
56876;BME280;42622;49.972;8.452;2022-07-23T00:41:58;100559.69;;;20.58;73.17
56876;BME280;42622;49.972;8.452;2022-07-23T00:44:26;100558.19;;;20.55;73.10
56876;BME280;42622;49.972;8.452;2022-07-23T00:46:58;100559.34;;;20.52;73.27
56876;BME280;42622;49.972;8.452;2022-07-23T00:49:28;100563.34;;;20.48;73.41
56876;BME280;42622;49.972;8.452;2022-07-23T00:51:56;100563.00;;;20.43;73.92
56876;BME280;42622;49.972;8.452;2022-07-23T00:54:28;100580.59;;;20.46;73.73
56876;BME280;42622;49.972;8.452;2022-07-23T00:56:54;100586.53;;;20.49;73.56
56876;BME280;42622;49.972;8.452;2022-07-23T00:59:20;100594.03;;;20.46;73.56
56876;BME280;42622;49.972;8.452;2022-07-23T01:01:46;100605.97;;;20.43;73.01
56876;BME280;42622;49.972;8.452;2022-07-23T01:04:14;100604.34;;;20.08;74.86
56876;BME280;42622;49.972;8.452;2022-07-23T01:06:43;100613.63;;;19.62;76.75
56876;BME280;42622;49.972;8.452;2022-07-23T01:09:10;100599.91;;;19.21;79.16
56876;BME280;42622;49.972;8.452;2022-07-23T01:11:37;100586.09;;;18.90;81.40
56876;BME280;42622;49.972;8.452;2022-07-23T01:14:18;100590.44;;;18.73;83.39
56876;BME280;42622;49.972;8.452;2022-07-23T01:16:47;100591.03;;;18.67;85.06
56876;BME280;42622;49.972;8.452;2022-07-23T01:19:18;100598.78;;;18.70;86.67
56876;BME280;42622;49.972;8.452;2022-07-23T01:21:50;100610.44;;;18.78;87.34
56876;BME280;42622;49.972;8.452;2022-07-23T01:24:18;100598.09;;;18.85;88.13
56876;BME280;42622;49.972;8.452;2022-07-23T01:26:48;100568.16;;;18.90;88.61
56876;BME280;42622;49.972;8.452;2022-07-23T01:29:15;100555.13;;;18.87;89.51
56876;BME280;42622;49.972;8.452;2022-07-23T01:31:42;100559.94;;;18.83;90.36
56876;BME280;42622;49.972;8.452;2022-07-23T01:34:10;100549.84;;;18.77;91.35
56876;BME280;42622;49.972;8.452;2022-07-23T01:36:38;100550.19;;;18.64;92.81
56876;BME280;42622;49.972;8.452;2022-07-23T01:39:06;100550.41;;;18.53;93.81
56876;BME280;42622;49.972;8.452;2022-07-23T01:41:33;100554.00;;;18.44;95.12
56876;BME280;42622;49.972;8.452;2022-07-23T01:43:59;100547.25;;;18.40;96.33
56876;BME280;42622;49.972;8.452;2022-07-23T01:46:25;100554.63;;;18.38;97.37
56876;BME280;42622;49.972;8.452;2022-07-23T01:48:51;100571.50;;;18.38;98.14
56876;BME280;42622;49.972;8.452;2022-07-23T01:51:17;100583.75;;;18.41;99.01
56876;BME280;42622;49.972;8.452;2022-07-23T01:53:43;100585.44;;;18.42;99.65
56876;BME280;42622;49.972;8.452;2022-07-23T01:56:09;100573.91;;;18.42;100.00
56876;BME280;42622;49.972;8.452;2022-07-23T01:58:34;100580.09;;;18.42;100.00
56876;BME280;42622;49.972;8.452;2022-07-23T02:01:01;100588.13;;;18.42;100.00
56876;BME280;42622;49.972;8.452;2022-07-23T02:03:27;100589.16;;;18.31;100.00
56876;BME280;42622;49.972;8.452;2022-07-23T02:05:52;100579.81;;;18.18;100.00
56876;BME280;42622;49.972;8.452;2022-07-23T02:08:18;100587.22;;;18.06;100.00
56876;BME280;42622;49.972;8.452;2022-07-23T02:10:44;100578.50;;;17.94;100.00
56876;BME280;42622;49.972;8.452;2022-07-23T02:13:11;100591.81;;;17.76;100.00
56876;BME280;42622;49.972;8.452;2022-07-23T02:15:37;100600.56;;;17.59;100.00
56876;BME280;42622;49.972;8.452;2022-07-23T02:18:05;100596.50;;;17.55;100.00
56876;BME280;42622;49.972;8.452;2022-07-23T02:20:34;100574.13;;;17.56;100.00
56876;BME280;42622;49.972;8.452;2022-07-23T02:23:10;100586.34;;;17.58;100.00
56876;BME280;42622;49.972;8.452;2022-07-23T02:25:38;100588.03;;;17.59;100.00
56876;BME280;42622;49.972;8.452;2022-07-23T02:28:04;100592.13;;;17.63;100.00
56876;BME280;42622;49.972;8.452;2022-07-23T02:30:30;100591.81;;;17.66;100.00
56876;BME280;42622;49.972;8.452;2022-07-23T02:32:56;100609.81;;;17.74;100.00
56876;BME280;42622;49.972;8.452;2022-07-23T02:35:21;100608.41;;;17.80;100.00
56876;BME280;42622;49.972;8.452;2022-07-23T02:37:47;100589.13;;;17.86;100.00
56876;BME280;42622;49.972;8.452;2022-07-23T02:40:13;100594.00;;;17.90;100.00
56876;BME280;42622;49.972;8.452;2022-07-23T02:42:39;100605.56;;;17.91;100.00
56876;BME280;42622;49.972;8.452;2022-07-23T02:45:06;100599.22;;;17.92;100.00
56876;BME280;42622;49.972;8.452;2022-07-23T02:47:32;100595.47;;;17.85;100.00
56876;BME280;42622;49.972;8.452;2022-07-23T02:49:58;100589.84;;;17.68;100.00
56876;BME280;42622;49.972;8.452;2022-07-23T02:52:23;100581.59;;;17.52;100.00
56876;BME280;42622;49.972;8.452;2022-07-23T02:54:49;100576.69;;;17.48;100.00
56876;BME280;42622;49.972;8.452;2022-07-23T02:57:15;100578.97;;;17.42;100.00
56876;BME280;42622;49.972;8.452;2022-07-23T02:59:41;100586.81;;;17.44;100.00
56876;BME280;42622;49.972;8.452;2022-07-23T03:02:06;100573.88;;;17.49;100.00
56876;BME280;42622;49.972;8.452;2022-07-23T03:04:33;100570.75;;;17.54;100.00
56876;BME280;42622;49.972;8.452;2022-07-23T03:06:59;100589.31;;;17.55;100.00
56876;BME280;42622;49.972;8.452;2022-07-23T03:09:24;100591.03;;;17.56;100.00
56876;BME280;42622;49.972;8.452;2022-07-23T03:11:50;100593.69;;;17.56;100.00
56876;BME280;42622;49.972;8.452;2022-07-23T03:14:16;100596.22;;;17.58;100.00
56876;BME280;42622;49.972;8.452;2022-07-23T03:16:42;100590.03;;;17.57;100.00
56876;BME280;42622;49.972;8.452;2022-07-23T03:19:08;100595.09;;;17.60;100.00
56876;BME280;42622;49.972;8.452;2022-07-23T03:21:33;100595.78;;;17.62;100.00
56876;BME280;42622;49.972;8.452;2022-07-23T03:24:00;100597.47;;;17.63;100.00
56876;BME280;42622;49.972;8.452;2022-07-23T03:26:26;100601.28;;;17.61;100.00
56876;BME280;42622;49.972;8.452;2022-07-23T03:28:52;100605.06;;;17.58;100.00
56876;BME280;42622;49.972;8.452;2022-07-23T03:31:18;100614.09;;;17.57;100.00
56876;BME280;42622;49.972;8.452;2022-07-23T03:33:43;100614.38;;;17.54;100.00
56876;BME280;42622;49.972;8.452;2022-07-23T03:36:09;100612.69;;;17.53;100.00
56876;BME280;42622;49.972;8.452;2022-07-23T03:38:35;100625.91;;;17.55;100.00
56876;BME280;42622;49.972;8.452;2022-07-23T03:41:00;100645.44;;;17.55;100.00
56876;BME280;42622;49.972;8.452;2022-07-23T03:43:26;100651.50;;;17.57;100.00
56876;BME280;42622;49.972;8.452;2022-07-23T03:45:52;100649.53;;;17.59;100.00
56876;BME280;42622;49.972;8.452;2022-07-23T03:48:18;100649.25;;;17.62;100.00
56876;BME280;42622;49.972;8.452;2022-07-23T03:50:44;100632.22;;;17.63;100.00
56876;BME280;42622;49.972;8.452;2022-07-23T03:53:09;100626.88;;;17.63;100.00
56876;BME280;42622;49.972;8.452;2022-07-23T03:55:35;100633.19;;;17.62;100.00
56876;BME280;42622;49.972;8.452;2022-07-23T03:58:01;100637.41;;;17.65;100.00
56876;BME280;42622;49.972;8.452;2022-07-23T04:00:27;100637.25;;;17.66;100.00
56876;BME280;42622;49.972;8.452;2022-07-23T04:02:53;100634.47;;;17.68;100.00
56876;BME280;42622;49.972;8.452;2022-07-23T04:05:19;100628.97;;;17.69;100.00
56876;BME280;42622;49.972;8.452;2022-07-23T04:07:44;100632.63;;;17.68;100.00
56876;BME280;42622;49.972;8.452;2022-07-23T04:10:10;100620.25;;;17.67;100.00
56876;BME280;42622;49.972;8.452;2022-07-23T04:12:36;100622.78;;;17.69;100.00
56876;BME280;42622;49.972;8.452;2022-07-23T04:15:02;100636.84;;;17.71;100.00
56876;BME280;42622;49.972;8.452;2022-07-23T04:17:28;100663.31;;;17.74;100.00
56876;BME280;42622;49.972;8.452;2022-07-23T04:19:54;100662.91;;;17.79;100.00
56876;BME280;42622;49.972;8.452;2022-07-23T04:22:20;100665.00;;;17.85;100.00
56876;BME280;42622;49.972;8.452;2022-07-23T04:24:45;100674.81;;;17.94;100.00
56876;BME280;42622;49.972;8.452;2022-07-23T04:27:11;100672.56;;;17.99;100.00
56876;BME280;42622;49.972;8.452;2022-07-23T04:29:37;100683.63;;;18.04;100.00
56876;BME280;42622;49.972;8.452;2022-07-23T04:32:03;100686.88;;;18.08;100.00
56876;BME280;42622;49.972;8.452;2022-07-23T04:34:29;100699.50;;;18.15;100.00
56876;BME280;42622;49.972;8.452;2022-07-23T04:36:55;100704.84;;;18.25;100.00
56876;BME280;42622;49.972;8.452;2022-07-23T04:39:21;100701.41;;;18.33;100.00
56876;BME280;42622;49.972;8.452;2022-07-23T04:41:47;100698.00;;;18.40;100.00
56876;BME280;42622;49.972;8.452;2022-07-23T04:44:14;100700.53;;;18.42;100.00
56876;BME280;42622;49.972;8.452;2022-07-23T04:46:39;100706.91;;;18.41;100.00
56876;BME280;42622;49.972;8.452;2022-07-23T04:49:05;100700.66;;;18.40;100.00
56876;BME280;42622;49.972;8.452;2022-07-23T04:51:31;100710.25;;;18.43;100.00
56876;BME280;42622;49.972;8.452;2022-07-23T04:53:57;100723.63;;;18.43;100.00
56876;BME280;42622;49.972;8.452;2022-07-23T04:56:23;100727.84;;;18.46;100.00
56876;BME280;42622;49.972;8.452;2022-07-23T04:58:49;100726.31;;;18.43;100.00
56876;BME280;42622;49.972;8.452;2022-07-23T05:01:14;100724.06;;;18.48;100.00
56876;BME280;42622;49.972;8.452;2022-07-23T05:03:40;100712.06;;;18.52;100.00
56876;BME280;42622;49.972;8.452;2022-07-23T05:06:06;100718.50;;;18.59;100.00
56876;BME280;42622;49.972;8.452;2022-07-23T05:08:32;100710.47;;;18.59;100.00
56876;BME280;42622;49.972;8.452;2022-07-23T05:10:57;100717.19;;;18.63;100.00
56876;BME280;42622;49.972;8.452;2022-07-23T05:13:23;100721.56;;;18.64;100.00
56876;BME280;42622;49.972;8.452;2022-07-23T05:15:49;100717.50;;;18.60;100.00
56876;BME280;42622;49.972;8.452;2022-07-23T05:18:15;100714.09;;;18.58;100.00
56876;BME280;42622;49.972;8.452;2022-07-23T05:20:40;100712.72;;;18.54;100.00
56876;BME280;42622;49.972;8.452;2022-07-23T05:23:07;100716.84;;;18.49;100.00
56876;BME280;42622;49.972;8.452;2022-07-23T05:25:39;100733.47;;;18.52;100.00
56876;BME280;42622;49.972;8.452;2022-07-23T05:28:08;100729.78;;;18.53;100.00
56876;BME280;42622;49.972;8.452;2022-07-23T05:30:33;100722.47;;;18.55;100.00
56876;BME280;42622;49.972;8.452;2022-07-23T05:32:59;100717.09;;;18.55;100.00
56876;BME280;42622;49.972;8.452;2022-07-23T05:35:27;100717.50;;;18.60;100.00
56876;BME280;42622;49.972;8.452;2022-07-23T05:37:53;100721.56;;;18.64;100.00
56876;BME280;42622;49.972;8.452;2022-07-23T05:40:18;100729.13;;;18.69;100.00
56876;BME280;42622;49.972;8.452;2022-07-23T05:42:44;100729.13;;;18.79;100.00
56876;BME280;42622;49.972;8.452;2022-07-23T05:45:11;100736.56;;;18.85;100.00
56876;BME280;42622;49.972;8.452;2022-07-23T05:47:48;100746.16;;;18.88;100.00
56876;BME280;42622;49.972;8.452;2022-07-23T05:50:15;100749.50;;;18.90;100.00
56876;BME280;42622;49.972;8.452;2022-07-23T05:52:42;100759.25;;;18.91;100.00
56876;BME280;42622;49.972;8.452;2022-07-23T05:55:10;100762.88;;;18.90;100.00
56876;BME280;42622;49.972;8.452;2022-07-23T05:57:37;100764.44;;;18.92;100.00
56876;BME280;42622;49.972;8.452;2022-07-23T06:00:08;100766.53;;;18.98;100.00
56876;BME280;42622;49.972;8.452;2022-07-23T06:02:38;100765.16;;;19.12;100.00
56876;BME280;42622;49.972;8.452;2022-07-23T06:05:05;100766.88;;;19.31;100.00
56876;BME280;42622;49.972;8.452;2022-07-23T06:07:33;100767.34;;;19.44;100.00
56876;BME280;42622;49.972;8.452;2022-07-23T06:09:59;100761.34;;;19.50;100.00
56876;BME280;42622;49.972;8.452;2022-07-23T06:12:25;100761.03;;;19.53;100.00
56876;BME280;42622;49.972;8.452;2022-07-23T06:14:51;100771.16;;;19.59;100.00
56876;BME280;42622;49.972;8.452;2022-07-23T06:17:18;100770.94;;;19.71;100.00
56876;BME280;42622;49.972;8.452;2022-07-23T06:19:44;100765.66;;;19.79;100.00
56876;BME280;42622;49.972;8.452;2022-07-23T06:22:09;100761.41;;;19.94;100.00
56876;BME280;42622;49.972;8.452;2022-07-23T06:24:35;100754.94;;;20.05;100.00
56876;BME280;42622;49.972;8.452;2022-07-23T06:27:01;100761.88;;;20.16;98.99
56876;BME280;42622;49.972;8.452;2022-07-23T06:29:27;100753.88;;;20.24;97.27
56876;BME280;42622;49.972;8.452;2022-07-23T06:31:53;100760.28;;;20.31;94.54
56876;BME280;42622;49.972;8.452;2022-07-23T06:34:18;100757.16;;;20.36;93.23
56876;BME280;42622;49.972;8.452;2022-07-23T06:36:44;100749.66;;;20.47;92.14
56876;BME280;42622;49.972;8.452;2022-07-23T06:39:10;100750.09;;;20.61;91.30
56876;BME280;42622;49.972;8.452;2022-07-23T06:41:36;100746.59;;;20.76;89.86
56876;BME280;42622;49.972;8.452;2022-07-23T06:44:02;100751.22;;;21.00;88.55
56876;BME280;42622;49.972;8.452;2022-07-23T06:46:28;100754.63;;;21.27;86.92
56876;BME280;42622;49.972;8.452;2022-07-23T06:48:54;100749.50;;;21.75;83.39
56876;BME280;42622;49.972;8.452;2022-07-23T06:51:19;100754.84;;;22.07;80.54
56876;BME280;42622;49.972;8.452;2022-07-23T06:53:45;100760.31;;;22.55;77.00
56876;BME280;42622;49.972;8.452;2022-07-23T06:56:11;100772.47;;;23.21;74.74
56876;BME280;42622;49.972;8.452;2022-07-23T06:58:36;100767.00;;;23.83;70.81
56876;BME280;42622;49.972;8.452;2022-07-23T07:01:02;100772.56;;;24.34;68.18
56876;BME280;42622;49.972;8.452;2022-07-23T07:03:28;100773.53;;;24.71;65.70
56876;BME280;42622;49.972;8.452;2022-07-23T07:05:54;100791.44;;;25.09;63.17
56876;BME280;42622;49.972;8.452;2022-07-23T07:08:19;100786.59;;;25.34;60.66
56876;BME280;42622;49.972;8.452;2022-07-23T07:10:45;100788.06;;;25.58;58.58
56876;BME280;42622;49.972;8.452;2022-07-23T07:13:13;100789.84;;;25.50;56.18
56876;BME280;42622;49.972;8.452;2022-07-23T07:15:39;100791.31;;;24.80;56.79
56876;BME280;42622;49.972;8.452;2022-07-23T07:18:04;100789.19;;;24.61;58.37
56876;BME280;42622;49.972;8.452;2022-07-23T07:20:30;100790.38;;;24.29;59.02
56876;BME280;42622;49.972;8.452;2022-07-23T07:22:56;100799.38;;;23.83;59.57
56876;BME280;42622;49.972;8.452;2022-07-23T07:25:22;100807.19;;;24.16;58.19
56876;BME280;42622;49.972;8.452;2022-07-23T07:27:47;100801.72;;;24.24;57.64
56876;BME280;42622;49.972;8.452;2022-07-23T07:30:14;100812.38;;;24.55;57.42
56876;BME280;42622;49.972;8.452;2022-07-23T07:32:40;100815.56;;;24.89;54.58
56876;BME280;42622;49.972;8.452;2022-07-23T07:35:07;100819.91;;;25.19;54.57
56876;BME280;42622;49.972;8.452;2022-07-23T07:37:33;100819.72;;;25.57;53.61
56876;BME280;42622;49.972;8.452;2022-07-23T07:39:59;100811.88;;;25.84;52.36
56876;BME280;42622;49.972;8.452;2022-07-23T07:42:25;100813.28;;;26.01;51.44
56876;BME280;42622;49.972;8.452;2022-07-23T07:44:51;100817.41;;;25.97;51.59
56876;BME280;42622;49.972;8.452;2022-07-23T07:47:17;100819.66;;;26.15;51.12
56876;BME280;42622;49.972;8.452;2022-07-23T07:49:43;100810.81;;;26.34;51.24
56876;BME280;42622;49.972;8.452;2022-07-23T07:52:10;100811.63;;;26.56;50.55
56876;BME280;42622;49.972;8.452;2022-07-23T07:54:37;100828.41;;;26.73;51.15
56876;BME280;42622;49.972;8.452;2022-07-23T07:57:03;100840.63;;;26.97;50.57
56876;BME280;42622;49.972;8.452;2022-07-23T07:59:28;100836.00;;;26.91;51.15
56876;BME280;42622;49.972;8.452;2022-07-23T08:01:54;100837.84;;;26.84;50.65
56876;BME280;42622;49.972;8.452;2022-07-23T08:04:20;100835.53;;;26.81;50.30
56876;BME280;42622;49.972;8.452;2022-07-23T08:06:46;100835.84;;;26.99;49.77
56876;BME280;42622;49.972;8.452;2022-07-23T08:09:12;100839.28;;;27.14;49.09
56876;BME280;42622;49.972;8.452;2022-07-23T08:11:37;100842.03;;;27.28;50.14
56876;BME280;42622;49.972;8.452;2022-07-23T08:14:03;100847.91;;;27.38;49.96
56876;BME280;42622;49.972;8.452;2022-07-23T08:16:29;100842.06;;;27.34;49.83
56876;BME280;42622;49.972;8.452;2022-07-23T08:18:55;100845.03;;;27.59;49.96
56876;BME280;42622;49.972;8.452;2022-07-23T08:21:20;100839.97;;;27.36;48.87
56876;BME280;42622;49.972;8.452;2022-07-23T08:23:46;100843.53;;;27.37;50.37
56876;BME280;42622;49.972;8.452;2022-07-23T08:26:12;100837.69;;;27.40;50.08
56876;BME280;42622;49.972;8.452;2022-07-23T08:28:38;100839.97;;;27.36;50.15
56876;BME280;42622;49.972;8.452;2022-07-23T08:31:04;100832.91;;;27.49;49.95
56876;BME280;42622;49.972;8.452;2022-07-23T08:33:31;100843.22;;;27.12;49.96
56876;BME280;42622;49.972;8.452;2022-07-23T08:35:58;100838.41;;;26.73;50.69
56876;BME280;42622;49.972;8.452;2022-07-23T08:38:24;100843.34;;;26.97;50.88
56876;BME280;42622;49.972;8.452;2022-07-23T08:40:55;100841.91;;;27.01;50.17
56876;BME280;42622;49.972;8.452;2022-07-23T08:43:33;100839.16;;;26.94;49.84
56876;BME280;42622;49.972;8.452;2022-07-23T08:46:03;100837.97;;;26.69;50.18
56876;BME280;42622;49.972;8.452;2022-07-23T08:48:33;100846.34;;;26.18;50.32
56876;BME280;42622;49.972;8.452;2022-07-23T08:51:04;100844.50;;;25.97;51.61
56876;BME280;42622;49.972;8.452;2022-07-23T08:53:33;100837.31;;;26.11;51.80
56876;BME280;42622;49.972;8.452;2022-07-23T08:56:03;100833.59;;;26.40;51.47
56876;BME280;42622;49.972;8.452;2022-07-23T08:58:31;100831.94;;;26.74;50.61
56876;BME280;42622;49.972;8.452;2022-07-23T09:00:57;100838.53;;;26.99;50.21
56876;BME280;42622;49.972;8.452;2022-07-23T09:03:28;100835.19;;;27.32;49.96
56876;BME280;42622;49.972;8.452;2022-07-23T09:05:57;100835.63;;;27.55;49.86
56876;BME280;42622;49.972;8.452;2022-07-23T09:08:36;100837.16;;;27.71;49.79
56876;BME280;42622;49.972;8.452;2022-07-23T09:11:07;100834.59;;;27.50;49.65
56876;BME280;42622;49.972;8.452;2022-07-23T09:13:57;100827.47;;;27.49;49.02
56876;BME280;42622;49.972;8.452;2022-07-23T09:16:30;100826.03;;;27.46;49.05
56876;BME280;42622;49.972;8.452;2022-07-23T09:19:01;100825.56;;;27.29;49.29
56876;BME280;42622;49.972;8.452;2022-07-23T09:21:38;100825.34;;;27.37;50.05
56876;BME280;42622;49.972;8.452;2022-07-23T09:24:08;100823.16;;;27.81;49.87
56876;BME280;42622;49.972;8.452;2022-07-23T09:26:47;100829.66;;;27.93;49.54
56876;BME280;42622;49.972;8.452;2022-07-23T09:29:22;100829.03;;;27.91;49.46
56876;BME280;42622;49.972;8.452;2022-07-23T09:31:58;100826.94;;;28.20;48.63
56876;BME280;42622;49.972;8.452;2022-07-23T09:34:30;100838.44;;;28.08;48.09
56876;BME280;42622;49.972;8.452;2022-07-23T09:37:15;100837.63;;;28.28;48.53
56876;BME280;42622;49.972;8.452;2022-07-23T09:39:46;100841.19;;;28.48;47.11
56876;BME280;42622;49.972;8.452;2022-07-23T09:42:18;100844.28;;;28.58;46.25
56876;BME280;42622;49.972;8.452;2022-07-23T09:44:56;100851.25;;;28.41;45.47
56876;BME280;42622;49.972;8.452;2022-07-23T09:47:30;100840.53;;;28.46;45.58
56876;BME280;42622;49.972;8.452;2022-07-23T09:50:09;100842.22;;;28.27;46.59
56876;BME280;42622;49.972;8.452;2022-07-23T09:52:48;100834.66;;;28.29;47.12
56876;BME280;42622;49.972;8.452;2022-07-23T09:55:18;100829.69;;;28.06;47.19
56876;BME280;42622;49.972;8.452;2022-07-23T09:57:46;100834.69;;;27.96;47.87
56876;BME280;42622;49.972;8.452;2022-07-23T10:00:20;100831.75;;;27.78;48.11
56876;BME280;42622;49.972;8.452;2022-07-23T10:02:49;100834.88;;;27.95;48.05
56876;BME280;42622;49.972;8.452;2022-07-23T10:05:15;100832.19;;;28.28;48.03
56876;BME280;42622;49.972;8.452;2022-07-23T10:07:42;100835.50;;;28.56;47.92
56876;BME280;42622;49.972;8.452;2022-07-23T10:10:10;100832.56;;;28.51;47.47
56876;BME280;42622;49.972;8.452;2022-07-23T10:12:38;100838.84;;;28.12;47.17
56876;BME280;42622;49.972;8.452;2022-07-23T10:15:07;100833.34;;;27.65;47.49
56876;BME280;42622;49.972;8.452;2022-07-23T10:17:35;100831.47;;;27.59;46.99
56876;BME280;42622;49.972;8.452;2022-07-23T10:20:03;100837.59;;;27.88;47.65
56876;BME280;42622;49.972;8.452;2022-07-23T10:22:38;100836.78;;;28.07;47.63
56876;BME280;42622;49.972;8.452;2022-07-23T10:26:04;100832.59;;;28.11;45.63
56876;BME280;42622;49.972;8.452;2022-07-23T10:32:36;100827.03;;;27.45;50.16
56876;BME280;42622;49.972;8.452;2022-07-23T10:35:26;100819.88;;;27.17;49.00
56876;BME280;42622;49.972;8.452;2022-07-23T10:38:16;100825.56;;;26.88;49.32
56876;BME280;42622;49.972;8.452;2022-07-23T10:41:04;100824.19;;;27.05;47.96
56876;BME280;42622;49.972;8.452;2022-07-23T10:43:32;100822.91;;;27.49;46.75
56876;BME280;42622;49.972;8.452;2022-07-23T10:49:45;100823.78;;;28.36;43.20
56876;BME280;42622;49.972;8.452;2022-07-23T10:57:27;100817.97;;;27.93;41.92
56876;BME280;42622;49.972;8.452;2022-07-23T11:02:29;100814.41;;;28.45;40.69
56876;BME280;42622;49.972;8.452;2022-07-23T11:05:19;100814.91;;;28.87;41.50
56876;BME280;42622;49.972;8.452;2022-07-23T11:10:56;100810.44;;;28.15;41.20
56876;BME280;42622;49.972;8.452;2022-07-23T11:13:40;100810.38;;;27.61;42.21
56876;BME280;42622;49.972;8.452;2022-07-23T11:16:20;100814.16;;;27.60;42.55
56876;BME280;42622;49.972;8.452;2022-07-23T11:24:00;100810.22;;;27.76;43.03
56876;BME280;42622;49.972;8.452;2022-07-23T11:32:24;100813.75;;;29.53;40.34
56876;BME280;42622;49.972;8.452;2022-07-23T11:34:55;100809.09;;;29.67;38.69
56876;BME280;42622;49.972;8.452;2022-07-23T11:37:39;100800.63;;;29.75;39.00
56876;BME280;42622;49.972;8.452;2022-07-23T11:40:11;100801.22;;;29.84;39.35
56876;BME280;42622;49.972;8.452;2022-07-23T11:42:51;100799.31;;;29.84;39.48
56876;BME280;42622;49.972;8.452;2022-07-23T11:45:25;100802.09;;;29.39;39.97
56876;BME280;42622;49.972;8.452;2022-07-23T11:47:56;100797.63;;;29.20;40.88
56876;BME280;42622;49.972;8.452;2022-07-23T11:50:24;100798.22;;;29.22;40.02
56876;BME280;42622;49.972;8.452;2022-07-23T11:52:52;100797.78;;;29.25;40.58
56876;BME280;42622;49.972;8.452;2022-07-23T11:55:19;100787.63;;;29.45;41.07
56876;BME280;42622;49.972;8.452;2022-07-23T11:57:46;100801.75;;;29.29;40.93
56876;BME280;42622;49.972;8.452;2022-07-23T12:00:16;100796.13;;;28.66;40.13
56876;BME280;42622;49.972;8.452;2022-07-23T12:02:50;100794.34;;;28.00;41.29
56876;BME280;42622;49.972;8.452;2022-07-23T12:05:26;100791.56;;;27.67;42.17
56876;BME280;42622;49.972;8.452;2022-07-23T12:07:54;100786.31;;;27.45;43.36
56876;BME280;42622;49.972;8.452;2022-07-23T12:13:03;100781.28;;;27.42;43.26
56876;BME280;42622;49.972;8.452;2022-07-23T12:15:54;100780.75;;;27.80;42.89
56876;BME280;42622;49.972;8.452;2022-07-23T12:18:26;100783.69;;;27.78;43.12
56876;BME280;42622;49.972;8.452;2022-07-23T12:20:56;100781.97;;;27.64;43.38
56876;BME280;42622;49.972;8.452;2022-07-23T12:23:27;100780.88;;;27.45;43.06
56876;BME280;42622;49.972;8.452;2022-07-23T12:25:54;100780.63;;;27.27;43.67
56876;BME280;42622;49.972;8.452;2022-07-23T12:28:32;100778.44;;;27.02;43.28
56876;BME280;42622;49.972;8.452;2022-07-23T12:30:59;100776.31;;;26.91;43.54
56876;BME280;42622;49.972;8.452;2022-07-23T12:36:02;100774.28;;;27.06;43.48
56876;BME280;42622;49.972;8.452;2022-07-23T12:38:41;100770.53;;;27.82;43.13
56876;BME280;42622;49.972;8.452;2022-07-23T12:41:09;100770.22;;;28.56;42.49
56876;BME280;42622;49.972;8.452;2022-07-23T12:43:45;100773.22;;;28.93;41.46
56876;BME280;42622;49.972;8.452;2022-07-23T12:46:17;100776.00;;;28.80;41.76
56876;BME280;42622;49.972;8.452;2022-07-23T12:56:29;100774.13;;;29.89;39.35
56876;BME280;42622;49.972;8.452;2022-07-23T12:59:05;100782.72;;;29.61;38.39
56876;BME280;42622;49.972;8.452;2022-07-23T13:01:38;100790.00;;;29.35;39.00
56876;BME280;42622;49.972;8.452;2022-07-23T13:04:17;100792.25;;;28.93;39.29
56876;BME280;42622;49.972;8.452;2022-07-23T13:06:52;100783.41;;;28.59;39.68
56876;BME280;42622;49.972;8.452;2022-07-23T13:09:22;100777.38;;;28.31;40.38
56876;BME280;42622;49.972;8.452;2022-07-23T13:11:52;100782.63;;;27.99;40.75
56876;BME280;42622;49.972;8.452;2022-07-23T13:14:21;100788.06;;;28.06;41.20
56876;BME280;42622;49.972;8.452;2022-07-23T13:16:49;100785.72;;;28.49;41.26
56876;BME280;42622;49.972;8.452;2022-07-23T13:19:17;100789.84;;;28.65;41.20
56876;BME280;42622;49.972;8.452;2022-07-23T13:21:45;100783.16;;;28.68;41.30
56876;BME280;42622;49.972;8.452;2022-07-23T13:24:12;100781.06;;;28.76;41.42
56876;BME280;42622;49.972;8.452;2022-07-23T13:26:39;100782.00;;;28.95;41.01
56876;BME280;42622;49.972;8.452;2022-07-23T13:29:06;100787.22;;;29.03;40.79
56876;BME280;42622;49.972;8.452;2022-07-23T13:31:33;100777.63;;;28.94;40.40
56876;BME280;42622;49.972;8.452;2022-07-23T13:34:00;100782.34;;;28.61;40.88